sensor_id;sensor_type;location;lat;lon;timestamp;P1;durP1;ratioP1;P2;durP2;ratioP2
43248;SDS011;29216;51.248;6.808;2023-11-21T00:00:35;10.10;;;6.50;;
43248;SDS011;29216;51.248;6.808;2023-11-21T00:03:01;13.00;;;6.13;;
43248;SDS011;29216;51.248;6.808;2023-11-21T00:05:27;10.77;;;5.60;;
43248;SDS011;29216;51.248;6.808;2023-11-21T00:07:53;12.60;;;6.38;;
43248;SDS011;29216;51.248;6.808;2023-11-21T00:10:19;13.73;;;7.50;;
43248;SDS011;29216;51.248;6.808;2023-11-21T00:12:45;10.40;;;6.28;;
43248;SDS011;29216;51.248;6.808;2023-11-21T00:15:13;12.52;;;6.40;;
43248;SDS011;29216;51.248;6.808;2023-11-21T00:17:39;11.75;;;6.15;;
43248;SDS011;29216;51.248;6.808;2023-11-21T00:20:06;11.60;;;7.45;;
43248;SDS011;29216;51.248;6.808;2023-11-21T00:22:35;9.23;;;6.65;;
43248;SDS011;29216;51.248;6.808;2023-11-21T00:25:01;11.57;;;6.63;;
43248;SDS011;29216;51.248;6.808;2023-11-21T00:27:29;12.73;;;6.63;;
43248;SDS011;29216;51.248;6.808;2023-11-21T00:29:55;14.20;;;6.63;;
43248;SDS011;29216;51.248;6.808;2023-11-21T00:32:21;12.32;;;6.40;;
43248;SDS011;29216;51.248;6.808;2023-11-21T00:34:47;15.38;;;7.00;;
43248;SDS011;29216;51.248;6.808;2023-11-21T00:37:13;13.07;;;7.07;;
43248;SDS011;29216;51.248;6.808;2023-11-21T00:39:39;10.55;;;6.47;;
43248;SDS011;29216;51.248;6.808;2023-11-21T00:42:06;13.90;;;6.30;;
43248;SDS011;29216;51.248;6.808;2023-11-21T00:44:33;13.32;;;7.00;;
43248;SDS011;29216;51.248;6.808;2023-11-21T00:46:59;16.08;;;7.28;;
43248;SDS011;29216;51.248;6.808;2023-11-21T00:49:25;16.58;;;6.90;;
43248;SDS011;29216;51.248;6.808;2023-11-21T00:51:53;8.85;;;6.57;;
43248;SDS011;29216;51.248;6.808;2023-11-21T00:54:19;16.17;;;7.25;;
43248;SDS011;29216;51.248;6.808;2023-11-21T00:56:45;14.18;;;7.60;;
43248;SDS011;29216;51.248;6.808;2023-11-21T00:59:13;13.10;;;7.93;;
43248;SDS011;29216;51.248;6.808;2023-11-21T01:01:39;18.83;;;8.48;;
43248;SDS011;29216;51.248;6.808;2023-11-21T01:04:05;23.55;;;9.02;;
43248;SDS011;29216;51.248;6.808;2023-11-21T01:06:34;22.77;;;8.35;;
43248;SDS011;29216;51.248;6.808;2023-11-21T01:09:00;13.65;;;8.10;;
43248;SDS011;29216;51.248;6.808;2023-11-21T01:11:26;22.10;;;8.55;;
43248;SDS011;29216;51.248;6.808;2023-11-21T01:13:52;13.63;;;8.02;;
43248;SDS011;29216;51.248;6.808;2023-11-21T01:16:18;13.80;;;8.07;;
43248;SDS011;29216;51.248;6.808;2023-11-21T01:18:44;14.07;;;7.85;;
43248;SDS011;29216;51.248;6.808;2023-11-21T01:21:10;19.17;;;8.35;;
43248;SDS011;29216;51.248;6.808;2023-11-21T01:23:37;14.98;;;7.57;;
43248;SDS011;29216;51.248;6.808;2023-11-21T01:26:03;16.13;;;7.57;;
43248;SDS011;29216;51.248;6.808;2023-11-21T01:28:29;18.05;;;8.18;;
43248;SDS011;29216;51.248;6.808;2023-11-21T01:30:55;18.80;;;10.88;;
43248;SDS011;29216;51.248;6.808;2023-11-21T01:33:21;13.23;;;7.97;;
43248;SDS011;29216;51.248;6.808;2023-11-21T01:35:49;16.02;;;8.18;;
43248;SDS011;29216;51.248;6.808;2023-11-21T01:38:15;17.02;;;7.90;;
43248;SDS011;29216;51.248;6.808;2023-11-21T01:40:42;17.52;;;7.82;;
43248;SDS011;29216;51.248;6.808;2023-11-21T01:43:08;19.30;;;8.75;;
43248;SDS011;29216;51.248;6.808;2023-11-21T01:45:34;12.93;;;7.70;;
43248;SDS011;29216;51.248;6.808;2023-11-21T01:48:00;14.93;;;7.57;;
43248;SDS011;29216;51.248;6.808;2023-11-21T01:50:28;15.00;;;8.27;;
43248;SDS011;29216;51.248;6.808;2023-11-21T01:52:54;14.40;;;7.28;;
43248;SDS011;29216;51.248;6.808;2023-11-21T01:55:20;15.07;;;7.75;;
43248;SDS011;29216;51.248;6.808;2023-11-21T01:57:46;15.73;;;7.53;;
43248;SDS011;29216;51.248;6.808;2023-11-21T02:00:13;15.43;;;9.15;;
43248;SDS011;29216;51.248;6.808;2023-11-21T02:02:44;16.33;;;7.60;;
43248;SDS011;29216;51.248;6.808;2023-11-21T02:05:19;12.25;;;8.02;;
43248;SDS011;29216;51.248;6.808;2023-11-21T02:07:46;14.55;;;8.10;;
43248;SDS011;29216;51.248;6.808;2023-11-21T02:10:13;20.35;;;7.93;;
43248;SDS011;29216;51.248;6.808;2023-11-21T02:12:43;12.60;;;7.68;;
43248;SDS011;29216;51.248;6.808;2023-11-21T02:15:12;18.02;;;7.43;;
43248;SDS011;29216;51.248;6.808;2023-11-21T02:17:51;12.43;;;7.88;;
43248;SDS011;29216;51.248;6.808;2023-11-21T02:20:19;18.65;;;8.15;;
43248;SDS011;29216;51.248;6.808;2023-11-21T02:22:52;19.92;;;9.00;;
43248;SDS011;29216;51.248;6.808;2023-11-21T02:25:22;19.52;;;8.98;;
43248;SDS011;29216;51.248;6.808;2023-11-21T02:27:48;15.65;;;8.18;;
43248;SDS011;29216;51.248;6.808;2023-11-21T02:30:15;13.98;;;7.57;;
43248;SDS011;29216;51.248;6.808;2023-11-21T02:32:41;13.73;;;7.30;;
43248;SDS011;29216;51.248;6.808;2023-11-21T02:35:08;14.32;;;7.55;;
43248;SDS011;29216;51.248;6.808;2023-11-21T02:37:34;15.82;;;7.75;;
43248;SDS011;29216;51.248;6.808;2023-11-21T02:40:01;13.98;;;7.65;;
43248;SDS011;29216;51.248;6.808;2023-11-21T02:42:31;18.45;;;7.63;;
43248;SDS011;29216;51.248;6.808;2023-11-21T02:44:57;15.00;;;7.55;;
43248;SDS011;29216;51.248;6.808;2023-11-21T02:47:23;14.30;;;7.47;;
43248;SDS011;29216;51.248;6.808;2023-11-21T02:49:49;12.98;;;7.40;;
43248;SDS011;29216;51.248;6.808;2023-11-21T02:52:17;11.00;;;6.40;;
43248;SDS011;29216;51.248;6.808;2023-11-21T02:54:44;20.48;;;7.38;;
43248;SDS011;29216;51.248;6.808;2023-11-21T02:57:10;12.45;;;6.85;;
43248;SDS011;29216;51.248;6.808;2023-11-21T02:59:35;14.90;;;7.38;;
43248;SDS011;29216;51.248;6.808;2023-11-21T03:02:01;14.13;;;7.45;;
43248;SDS011;29216;51.248;6.808;2023-11-21T03:04:28;14.82;;;7.75;;
43248;SDS011;29216;51.248;6.808;2023-11-21T03:06:54;12.38;;;7.10;;
43248;SDS011;29216;51.248;6.808;2023-11-21T03:09:20;15.10;;;7.88;;
43248;SDS011;29216;51.248;6.808;2023-11-21T03:11:46;15.23;;;8.88;;
43248;SDS011;29216;51.248;6.808;2023-11-21T03:14:12;17.13;;;8.25;;
43248;SDS011;29216;51.248;6.808;2023-11-21T03:16:38;14.48;;;8.40;;
43248;SDS011;29216;51.248;6.808;2023-11-21T03:19:06;12.88;;;7.40;;
43248;SDS011;29216;51.248;6.808;2023-11-21T03:21:33;17.02;;;7.65;;
43248;SDS011;29216;51.248;6.808;2023-11-21T03:23:59;14.13;;;7.57;;
43248;SDS011;29216;51.248;6.808;2023-11-21T03:26:25;13.85;;;7.88;;
43248;SDS011;29216;51.248;6.808;2023-11-21T03:28:51;15.63;;;8.00;;
43248;SDS011;29216;51.248;6.808;2023-11-21T03:31:18;13.05;;;7.90;;
43248;SDS011;29216;51.248;6.808;2023-11-21T03:33:45;13.40;;;7.50;;
43248;SDS011;29216;51.248;6.808;2023-11-21T03:36:12;15.45;;;8.40;;
43248;SDS011;29216;51.248;6.808;2023-11-21T03:38:39;12.85;;;7.55;;
43248;SDS011;29216;51.248;6.808;2023-11-21T03:41:06;12.65;;;7.82;;
43248;SDS011;29216;51.248;6.808;2023-11-21T03:43:35;16.67;;;8.85;;
43248;SDS011;29216;51.248;6.808;2023-11-21T03:46:01;13.77;;;7.30;;
43248;SDS011;29216;51.248;6.808;2023-11-21T03:48:27;15.05;;;8.35;;
43248;SDS011;29216;51.248;6.808;2023-11-21T03:50:53;14.02;;;7.72;;
43248;SDS011;29216;51.248;6.808;2023-11-21T03:53:19;11.60;;;6.88;;
43248;SDS011;29216;51.248;6.808;2023-11-21T03:55:45;13.68;;;8.32;;
43248;SDS011;29216;51.248;6.808;2023-11-21T03:58:11;15.50;;;7.78;;
43248;SDS011;29216;51.248;6.808;2023-11-21T04:00:37;14.60;;;8.23;;
43248;SDS011;29216;51.248;6.808;2023-11-21T04:03:03;13.45;;;7.70;;
43248;SDS011;29216;51.248;6.808;2023-11-21T04:05:30;13.77;;;8.00;;
43248;SDS011;29216;51.248;6.808;2023-11-21T04:07:56;17.27;;;8.32;;
43248;SDS011;29216;51.248;6.808;2023-11-21T04:10:22;14.82;;;7.80;;
43248;SDS011;29216;51.248;6.808;2023-11-21T04:12:48;15.93;;;9.50;;
43248;SDS011;29216;51.248;6.808;2023-11-21T04:15:14;14.63;;;8.98;;
43248;SDS011;29216;51.248;6.808;2023-11-21T04:17:40;16.80;;;8.35;;
43248;SDS011;29216;51.248;6.808;2023-11-21T04:20:07;17.92;;;9.40;;
43248;SDS011;29216;51.248;6.808;2023-11-21T04:22:34;12.25;;;8.50;;
43248;SDS011;29216;51.248;6.808;2023-11-21T04:25:00;12.82;;;8.48;;
43248;SDS011;29216;51.248;6.808;2023-11-21T04:27:26;17.52;;;9.85;;
43248;SDS011;29216;51.248;6.808;2023-11-21T04:29:52;16.80;;;8.38;;
43248;SDS011;29216;51.248;6.808;2023-11-21T04:32:18;16.45;;;8.35;;
43248;SDS011;29216;51.248;6.808;2023-11-21T04:34:44;17.38;;;10.38;;
43248;SDS011;29216;51.248;6.808;2023-11-21T04:37:10;19.92;;;10.15;;
43248;SDS011;29216;51.248;6.808;2023-11-21T04:39:36;14.25;;;9.55;;
43248;SDS011;29216;51.248;6.808;2023-11-21T04:42:02;17.95;;;9.65;;
43248;SDS011;29216;51.248;6.808;2023-11-21T04:44:29;18.20;;;9.73;;
43248;SDS011;29216;51.248;6.808;2023-11-21T04:46:55;18.50;;;9.48;;
43248;SDS011;29216;51.248;6.808;2023-11-21T04:49:21;15.80;;;9.27;;
43248;SDS011;29216;51.248;6.808;2023-11-21T04:51:47;19.80;;;10.68;;
43248;SDS011;29216;51.248;6.808;2023-11-21T04:54:13;20.55;;;10.77;;
43248;SDS011;29216;51.248;6.808;2023-11-21T04:56:39;16.15;;;10.82;;
43248;SDS011;29216;51.248;6.808;2023-11-21T04:59:05;17.80;;;10.57;;
43248;SDS011;29216;51.248;6.808;2023-11-21T05:01:31;18.38;;;10.35;;
43248;SDS011;29216;51.248;6.808;2023-11-21T05:03:57;20.80;;;10.80;;
43248;SDS011;29216;51.248;6.808;2023-11-21T05:06:23;15.60;;;9.35;;
43248;SDS011;29216;51.248;6.808;2023-11-21T05:08:49;16.90;;;10.02;;
43248;SDS011;29216;51.248;6.808;2023-11-21T05:11:27;17.42;;;10.25;;
43248;SDS011;29216;51.248;6.808;2023-11-21T05:13:57;16.05;;;10.02;;
43248;SDS011;29216;51.248;6.808;2023-11-21T05:16:25;23.42;;;10.93;;
43248;SDS011;29216;51.248;6.808;2023-11-21T05:18:52;16.30;;;10.65;;
43248;SDS011;29216;51.248;6.808;2023-11-21T05:21:21;16.02;;;10.65;;
43248;SDS011;29216;51.248;6.808;2023-11-21T05:23:48;18.10;;;9.73;;
43248;SDS011;29216;51.248;6.808;2023-11-21T05:26:14;22.50;;;11.15;;
43248;SDS011;29216;51.248;6.808;2023-11-21T05:28:40;20.52;;;11.55;;
43248;SDS011;29216;51.248;6.808;2023-11-21T05:31:06;17.05;;;10.48;;
43248;SDS011;29216;51.248;6.808;2023-11-21T05:33:32;16.40;;;10.48;;
43248;SDS011;29216;51.248;6.808;2023-11-21T05:35:58;17.10;;;11.00;;
43248;SDS011;29216;51.248;6.808;2023-11-21T05:38:24;16.77;;;10.35;;
43248;SDS011;29216;51.248;6.808;2023-11-21T05:40:50;19.80;;;10.95;;
43248;SDS011;29216;51.248;6.808;2023-11-21T05:43:16;17.80;;;12.10;;
43248;SDS011;29216;51.248;6.808;2023-11-21T05:45:43;19.08;;;10.68;;
43248;SDS011;29216;51.248;6.808;2023-11-21T05:48:08;19.55;;;11.27;;
43248;SDS011;29216;51.248;6.808;2023-11-21T05:50:35;21.83;;;11.70;;
43248;SDS011;29216;51.248;6.808;2023-11-21T05:53:03;22.85;;;11.52;;
43248;SDS011;29216;51.248;6.808;2023-11-21T05:55:29;18.67;;;11.80;;
43248;SDS011;29216;51.248;6.808;2023-11-21T05:57:56;20.05;;;11.18;;
43248;SDS011;29216;51.248;6.808;2023-11-21T06:00:22;23.98;;;12.35;;
43248;SDS011;29216;51.248;6.808;2023-11-21T06:02:50;21.38;;;12.13;;
43248;SDS011;29216;51.248;6.808;2023-11-21T06:05:18;19.95;;;11.93;;
43248;SDS011;29216;51.248;6.808;2023-11-21T06:07:44;21.80;;;12.15;;
43248;SDS011;29216;51.248;6.808;2023-11-21T06:10:11;23.35;;;12.45;;
43248;SDS011;29216;51.248;6.808;2023-11-21T06:12:39;25.67;;;13.32;;
43248;SDS011;29216;51.248;6.808;2023-11-21T06:15:07;24.67;;;13.25;;
43248;SDS011;29216;51.248;6.808;2023-11-21T06:17:34;25.20;;;14.18;;
43248;SDS011;29216;51.248;6.808;2023-11-21T06:20:05;28.13;;;16.08;;
43248;SDS011;29216;51.248;6.808;2023-11-21T06:22:41;33.55;;;16.60;;
43248;SDS011;29216;51.248;6.808;2023-11-21T06:25:07;27.15;;;15.32;;
43248;SDS011;29216;51.248;6.808;2023-11-21T06:27:34;35.53;;;17.65;;
43248;SDS011;29216;51.248;6.808;2023-11-21T06:30:02;33.65;;;17.65;;
43248;SDS011;29216;51.248;6.808;2023-11-21T06:32:28;34.58;;;16.77;;
43248;SDS011;29216;51.248;6.808;2023-11-21T06:34:58;32.08;;;16.73;;
43248;SDS011;29216;51.248;6.808;2023-11-21T06:37:25;38.03;;;17.92;;
43248;SDS011;29216;51.248;6.808;2023-11-21T06:39:51;31.98;;;16.65;;
43248;SDS011;29216;51.248;6.808;2023-11-21T06:42:17;37.15;;;17.02;;
43248;SDS011;29216;51.248;6.808;2023-11-21T06:44:44;37.88;;;17.90;;
43248;SDS011;29216;51.248;6.808;2023-11-21T06:47:10;31.92;;;17.23;;
43248;SDS011;29216;51.248;6.808;2023-11-21T06:49:36;31.23;;;17.17;;
43248;SDS011;29216;51.248;6.808;2023-11-21T06:52:03;32.17;;;17.30;;
43248;SDS011;29216;51.248;6.808;2023-11-21T06:54:30;34.42;;;17.70;;
43248;SDS011;29216;51.248;6.808;2023-11-21T06:56:57;34.50;;;17.13;;
43248;SDS011;29216;51.248;6.808;2023-11-21T06:59:23;29.58;;;17.90;;
43248;SDS011;29216;51.248;6.808;2023-11-21T07:01:50;29.08;;;16.90;;
43248;SDS011;29216;51.248;6.808;2023-11-21T07:04:16;30.33;;;17.05;;
43248;SDS011;29216;51.248;6.808;2023-11-21T07:06:43;33.70;;;17.23;;
43248;SDS011;29216;51.248;6.808;2023-11-21T07:09:09;33.47;;;18.27;;
43248;SDS011;29216;51.248;6.808;2023-11-21T07:11:36;44.58;;;20.85;;
43248;SDS011;29216;51.248;6.808;2023-11-21T07:14:03;36.30;;;18.95;;
43248;SDS011;29216;51.248;6.808;2023-11-21T07:16:34;30.20;;;17.02;;
43248;SDS011;29216;51.248;6.808;2023-11-21T07:19:02;29.58;;;17.38;;
43248;SDS011;29216;51.248;6.808;2023-11-21T07:21:31;31.83;;;16.83;;
43248;SDS011;29216;51.248;6.808;2023-11-21T07:23:57;33.97;;;17.40;;
43248;SDS011;29216;51.248;6.808;2023-11-21T07:26:23;33.75;;;15.50;;
43248;SDS011;29216;51.248;6.808;2023-11-21T07:28:50;35.40;;;16.00;;
43248;SDS011;29216;51.248;6.808;2023-11-21T07:31:16;29.85;;;16.25;;
43248;SDS011;29216;51.248;6.808;2023-11-21T07:33:42;29.48;;;15.20;;
43248;SDS011;29216;51.248;6.808;2023-11-21T07:36:08;28.48;;;14.43;;
43248;SDS011;29216;51.248;6.808;2023-11-21T07:38:35;28.00;;;14.75;;
43248;SDS011;29216;51.248;6.808;2023-11-21T07:41:01;26.85;;;13.57;;
43248;SDS011;29216;51.248;6.808;2023-11-21T07:43:27;32.00;;;16.35;;
43248;SDS011;29216;51.248;6.808;2023-11-21T07:45:59;25.63;;;13.77;;
43248;SDS011;29216;51.248;6.808;2023-11-21T07:48:25;31.48;;;16.55;;
43248;SDS011;29216;51.248;6.808;2023-11-21T07:50:51;35.03;;;15.68;;
43248;SDS011;29216;51.248;6.808;2023-11-21T07:53:17;30.40;;;16.38;;
43248;SDS011;29216;51.248;6.808;2023-11-21T07:55:43;30.50;;;15.18;;
43248;SDS011;29216;51.248;6.808;2023-11-21T07:58:12;34.50;;;18.42;;
43248;SDS011;29216;51.248;6.808;2023-11-21T08:00:38;33.85;;;16.60;;
43248;SDS011;29216;51.248;6.808;2023-11-21T08:03:04;36.20;;;17.35;;
43248;SDS011;29216;51.248;6.808;2023-11-21T08:05:30;32.38;;;16.73;;
43248;SDS011;29216;51.248;6.808;2023-11-21T08:07:57;34.15;;;17.20;;
43248;SDS011;29216;51.248;6.808;2023-11-21T08:10:23;35.97;;;17.17;;
43248;SDS011;29216;51.248;6.808;2023-11-21T08:12:49;37.20;;;18.08;;
43248;SDS011;29216;51.248;6.808;2023-11-21T08:15:15;32.25;;;16.30;;
43248;SDS011;29216;51.248;6.808;2023-11-21T08:17:41;33.00;;;16.60;;
43248;SDS011;29216;51.248;6.808;2023-11-21T08:20:07;35.67;;;16.85;;
43248;SDS011;29216;51.248;6.808;2023-11-21T08:22:35;32.03;;;17.60;;
43248;SDS011;29216;51.248;6.808;2023-11-21T08:25:02;36.83;;;17.90;;
43248;SDS011;29216;51.248;6.808;2023-11-21T08:27:29;32.40;;;17.63;;
43248;SDS011;29216;51.248;6.808;2023-11-21T08:29:55;40.45;;;19.08;;
43248;SDS011;29216;51.248;6.808;2023-11-21T08:32:22;28.55;;;16.40;;
43248;SDS011;29216;51.248;6.808;2023-11-21T08:34:48;34.70;;;18.48;;
43248;SDS011;29216;51.248;6.808;2023-11-21T08:37:16;33.08;;;17.85;;
43248;SDS011;29216;51.248;6.808;2023-11-21T08:39:43;35.90;;;18.50;;
43248;SDS011;29216;51.248;6.808;2023-11-21T08:42:09;38.13;;;18.63;;
43248;SDS011;29216;51.248;6.808;2023-11-21T08:44:35;33.45;;;17.80;;
43248;SDS011;29216;51.248;6.808;2023-11-21T08:47:01;34.17;;;17.95;;
43248;SDS011;29216;51.248;6.808;2023-11-21T08:49:29;32.45;;;17.55;;
43248;SDS011;29216;51.248;6.808;2023-11-21T08:51:55;39.13;;;19.85;;
43248;SDS011;29216;51.248;6.808;2023-11-21T08:54:24;39.60;;;20.65;;
43248;SDS011;29216;51.248;6.808;2023-11-21T08:56:50;37.22;;;18.88;;
43248;SDS011;29216;51.248;6.808;2023-11-21T08:59:17;41.22;;;19.45;;
43248;SDS011;29216;51.248;6.808;2023-11-21T09:01:43;33.70;;;18.73;;
43248;SDS011;29216;51.248;6.808;2023-11-21T09:04:09;39.63;;;20.55;;
43248;SDS011;29216;51.248;6.808;2023-11-21T09:06:35;36.40;;;19.02;;
43248;SDS011;29216;51.248;6.808;2023-11-21T09:09:01;35.08;;;18.98;;
43248;SDS011;29216;51.248;6.808;2023-11-21T09:11:28;43.63;;;18.88;;
43248;SDS011;29216;51.248;6.808;2023-11-21T09:13:58;34.95;;;18.67;;
43248;SDS011;29216;51.248;6.808;2023-11-21T09:16:24;37.13;;;18.95;;
43248;SDS011;29216;51.248;6.808;2023-11-21T09:18:50;33.42;;;19.13;;
43248;SDS011;29216;51.248;6.808;2023-11-21T09:21:16;36.13;;;19.83;;
43248;SDS011;29216;51.248;6.808;2023-11-21T09:23:45;38.67;;;20.00;;
43248;SDS011;29216;51.248;6.808;2023-11-21T09:26:11;36.33;;;19.92;;
43248;SDS011;29216;51.248;6.808;2023-11-21T09:28:37;35.65;;;18.10;;
43248;SDS011;29216;51.248;6.808;2023-11-21T09:31:04;35.10;;;19.77;;
43248;SDS011;29216;51.248;6.808;2023-11-21T09:33:33;30.45;;;18.10;;
43248;SDS011;29216;51.248;6.808;2023-11-21T09:35:59;42.38;;;19.33;;
43248;SDS011;29216;51.248;6.808;2023-11-21T09:38:26;34.33;;;18.73;;
43248;SDS011;29216;51.248;6.808;2023-11-21T09:40:53;36.00;;;18.83;;
43248;SDS011;29216;51.248;6.808;2023-11-21T09:43:20;33.53;;;17.92;;
43248;SDS011;29216;51.248;6.808;2023-11-21T09:45:47;32.65;;;17.48;;
43248;SDS011;29216;51.248;6.808;2023-11-21T09:48:15;36.00;;;18.63;;
43248;SDS011;29216;51.248;6.808;2023-11-21T09:50:42;34.25;;;18.92;;
43248;SDS011;29216;51.248;6.808;2023-11-21T09:55:40;30.90;;;18.58;;
43248;SDS011;29216;51.248;6.808;2023-11-21T09:58:06;34.65;;;20.13;;
43248;SDS011;29216;51.248;6.808;2023-11-21T10:00:36;43.30;;;21.15;;
43248;SDS011;29216;51.248;6.808;2023-11-21T10:03:03;38.85;;;20.23;;
43248;SDS011;29216;51.248;6.808;2023-11-21T10:05:29;41.53;;;19.08;;
43248;SDS011;29216;51.248;6.808;2023-11-21T10:07:59;43.55;;;19.88;;
43248;SDS011;29216;51.248;6.808;2023-11-21T10:10:26;37.95;;;19.77;;
43248;SDS011;29216;51.248;6.808;2023-11-21T10:12:56;39.67;;;21.27;;
43248;SDS011;29216;51.248;6.808;2023-11-21T10:15:23;42.35;;;21.52;;
43248;SDS011;29216;51.248;6.808;2023-11-21T10:17:53;42.38;;;21.48;;
43248;SDS011;29216;51.248;6.808;2023-11-21T10:20:20;36.60;;;20.17;;
43248;SDS011;29216;51.248;6.808;2023-11-21T10:22:47;47.35;;;22.77;;
43248;SDS011;29216;51.248;6.808;2023-11-21T10:25:13;40.13;;;21.65;;
43248;SDS011;29216;51.248;6.808;2023-11-21T10:27:40;48.70;;;23.33;;
43248;SDS011;29216;51.248;6.808;2023-11-21T10:30:09;53.60;;;26.33;;
43248;SDS011;29216;51.248;6.808;2023-11-21T10:32:41;59.58;;;27.02;;
43248;SDS011;29216;51.248;6.808;2023-11-21T10:35:08;59.60;;;29.02;;
43248;SDS011;29216;51.248;6.808;2023-11-21T10:37:38;56.10;;;27.52;;
43248;SDS011;29216;51.248;6.808;2023-11-21T10:40:10;57.13;;;27.85;;
43248;SDS011;29216;51.248;6.808;2023-11-21T10:42:40;59.05;;;29.33;;
43248;SDS011;29216;51.248;6.808;2023-11-21T10:45:07;58.22;;;26.25;;
43248;SDS011;29216;51.248;6.808;2023-11-21T10:47:40;65.75;;;27.52;;
43248;SDS011;29216;51.248;6.808;2023-11-21T10:50:06;62.50;;;27.48;;
43248;SDS011;29216;51.248;6.808;2023-11-21T10:52:36;63.50;;;29.45;;
43248;SDS011;29216;51.248;6.808;2023-11-21T10:55:13;62.53;;;28.63;;
43248;SDS011;29216;51.248;6.808;2023-11-21T10:57:41;60.28;;;29.67;;
43248;SDS011;29216;51.248;6.808;2023-11-21T11:00:08;64.07;;;29.88;;
43248;SDS011;29216;51.248;6.808;2023-11-21T11:02:37;62.85;;;28.77;;
43248;SDS011;29216;51.248;6.808;2023-11-21T11:05:04;60.30;;;27.92;;
43248;SDS011;29216;51.248;6.808;2023-11-21T11:07:31;63.08;;;28.60;;
43248;SDS011;29216;51.248;6.808;2023-11-21T11:09:59;61.75;;;30.60;;
43248;SDS011;29216;51.248;6.808;2023-11-21T11:12:25;77.50;;;33.63;;
43248;SDS011;29216;51.248;6.808;2023-11-21T11:14:53;62.97;;;30.23;;
43248;SDS011;29216;51.248;6.808;2023-11-21T11:17:19;70.47;;;31.45;;
43248;SDS011;29216;51.248;6.808;2023-11-21T11:19:46;69.05;;;31.67;;
43248;SDS011;29216;51.248;6.808;2023-11-21T11:30:11;60.28;;;29.40;;
43248;SDS011;29216;51.248;6.808;2023-11-21T11:35:18;62.28;;;27.05;;
43248;SDS011;29216;51.248;6.808;2023-11-21T11:37:47;57.25;;;25.38;;
43248;SDS011;29216;51.248;6.808;2023-11-21T11:40:13;62.25;;;26.45;;
43248;SDS011;29216;51.248;6.808;2023-11-21T11:42:54;58.25;;;26.20;;
43248;SDS011;29216;51.248;6.808;2023-11-21T11:45:20;60.30;;;25.13;;
43248;SDS011;29216;51.248;6.808;2023-11-21T11:47:47;59.40;;;24.55;;
43248;SDS011;29216;51.248;6.808;2023-11-21T11:50:13;59.70;;;24.88;;
43248;SDS011;29216;51.248;6.808;2023-11-21T11:52:48;50.33;;;24.02;;
43248;SDS011;29216;51.248;6.808;2023-11-21T11:55:17;54.95;;;24.15;;
43248;SDS011;29216;51.248;6.808;2023-11-21T11:57:44;44.47;;;23.25;;
43248;SDS011;29216;51.248;6.808;2023-11-21T12:00:15;47.35;;;23.02;;
43248;SDS011;29216;51.248;6.808;2023-11-21T12:02:50;53.78;;;24.25;;
43248;SDS011;29216;51.248;6.808;2023-11-21T12:05:17;43.63;;;19.20;;
43248;SDS011;29216;51.248;6.808;2023-11-21T12:10:11;46.40;;;21.75;;
43248;SDS011;29216;51.248;6.808;2023-11-21T12:12:37;52.47;;;21.17;;
43248;SDS011;29216;51.248;6.808;2023-11-21T12:15:04;43.40;;;20.70;;
43248;SDS011;29216;51.248;6.808;2023-11-21T12:17:30;42.17;;;18.85;;
43248;SDS011;29216;51.248;6.808;2023-11-21T12:20:03;39.55;;;18.60;;
43248;SDS011;29216;51.248;6.808;2023-11-21T12:22:30;37.38;;;17.58;;
43248;SDS011;29216;51.248;6.808;2023-11-21T12:24:56;35.10;;;17.48;;
43248;SDS011;29216;51.248;6.808;2023-11-21T12:27:22;32.28;;;17.10;;
43248;SDS011;29216;51.248;6.808;2023-11-21T12:29:48;37.22;;;19.08;;
43248;SDS011;29216;51.248;6.808;2023-11-21T12:32:14;35.92;;;19.15;;
43248;SDS011;29216;51.248;6.808;2023-11-21T12:34:43;37.55;;;19.38;;
43248;SDS011;29216;51.248;6.808;2023-11-21T12:37:09;39.50;;;18.00;;
43248;SDS011;29216;51.248;6.808;2023-11-21T12:39:35;40.80;;;18.35;;
43248;SDS011;29216;51.248;6.808;2023-11-21T12:42:01;36.67;;;16.70;;
43248;SDS011;29216;51.248;6.808;2023-11-21T12:44:28;38.65;;;18.38;;
43248;SDS011;29216;51.248;6.808;2023-11-21T12:46:54;31.92;;;16.75;;
43248;SDS011;29216;51.248;6.808;2023-11-21T12:49:20;33.58;;;18.48;;
43248;SDS011;29216;51.248;6.808;2023-11-21T12:51:47;39.55;;;18.13;;
43248;SDS011;29216;51.248;6.808;2023-11-21T12:54:13;43.47;;;21.55;;
43248;SDS011;29216;51.248;6.808;2023-11-21T12:56:39;39.78;;;20.95;;
43248;SDS011;29216;51.248;6.808;2023-11-21T12:59:05;47.15;;;21.67;;
43248;SDS011;29216;51.248;6.808;2023-11-21T13:01:31;42.72;;;20.60;;
43248;SDS011;29216;51.248;6.808;2023-11-21T13:03:57;38.78;;;20.05;;
43248;SDS011;29216;51.248;6.808;2023-11-21T13:06:23;41.67;;;20.55;;
43248;SDS011;29216;51.248;6.808;2023-11-21T13:08:51;49.88;;;21.15;;
43248;SDS011;29216;51.248;6.808;2023-11-21T13:11:17;45.80;;;21.95;;
43248;SDS011;29216;51.248;6.808;2023-11-21T13:13:43;46.33;;;23.83;;
43248;SDS011;29216;51.248;6.808;2023-11-21T13:16:09;50.05;;;22.40;;
43248;SDS011;29216;51.248;6.808;2023-11-21T13:18:35;50.38;;;23.85;;
43248;SDS011;29216;51.248;6.808;2023-11-21T13:21:03;49.40;;;23.35;;
43248;SDS011;29216;51.248;6.808;2023-11-21T13:23:35;46.75;;;23.58;;
43248;SDS011;29216;51.248;6.808;2023-11-21T13:26:02;53.00;;;24.42;;
43248;SDS011;29216;51.248;6.808;2023-11-21T13:28:32;52.40;;;24.45;;
43248;SDS011;29216;51.248;6.808;2023-11-21T13:30:58;51.75;;;24.60;;
43248;SDS011;29216;51.248;6.808;2023-11-21T13:33:34;46.05;;;23.60;;
43248;SDS011;29216;51.248;6.808;2023-11-21T13:36:02;55.20;;;26.88;;
43248;SDS011;29216;51.248;6.808;2023-11-21T13:38:32;57.30;;;27.92;;
43248;SDS011;29216;51.248;6.808;2023-11-21T13:41:00;59.63;;;26.48;;
43248;SDS011;29216;51.248;6.808;2023-11-21T13:43:26;50.40;;;25.73;;
43248;SDS011;29216;51.248;6.808;2023-11-21T13:45:54;58.90;;;27.25;;
43248;SDS011;29216;51.248;6.808;2023-11-21T13:48:26;63.30;;;26.52;;
43248;SDS011;29216;51.248;6.808;2023-11-21T13:51:12;54.40;;;25.33;;
43248;SDS011;29216;51.248;6.808;2023-11-21T13:53:42;47.90;;;23.70;;
43248;SDS011;29216;51.248;6.808;2023-11-21T13:56:09;52.78;;;25.10;;
43248;SDS011;29216;51.248;6.808;2023-11-21T13:58:36;52.80;;;24.85;;
43248;SDS011;29216;51.248;6.808;2023-11-21T14:01:28;55.28;;;26.10;;
43248;SDS011;29216;51.248;6.808;2023-11-21T14:03:57;55.72;;;25.73;;
43248;SDS011;29216;51.248;6.808;2023-11-21T14:06:48;60.95;;;25.20;;
43248;SDS011;29216;51.248;6.808;2023-11-21T14:09:16;44.67;;;21.30;;
43248;SDS011;29216;51.248;6.808;2023-11-21T14:14:21;31.08;;;16.45;;
43248;SDS011;29216;51.248;6.808;2023-11-21T14:16:47;30.13;;;15.80;;
43248;SDS011;29216;51.248;6.808;2023-11-21T14:19:13;23.15;;;12.82;;
43248;SDS011;29216;51.248;6.808;2023-11-21T14:21:45;30.00;;;14.55;;
43248;SDS011;29216;51.248;6.808;2023-11-21T14:24:12;25.60;;;14.70;;
43248;SDS011;29216;51.248;6.808;2023-11-21T14:26:41;31.88;;;14.10;;
43248;SDS011;29216;51.248;6.808;2023-11-21T14:29:08;23.63;;;12.25;;
43248;SDS011;29216;51.248;6.808;2023-11-21T14:31:38;21.90;;;12.00;;
43248;SDS011;29216;51.248;6.808;2023-11-21T14:34:04;20.98;;;12.07;;
43248;SDS011;29216;51.248;6.808;2023-11-21T14:36:32;18.52;;;11.07;;
43248;SDS011;29216;51.248;6.808;2023-11-21T14:38:58;17.58;;;10.05;;
43248;SDS011;29216;51.248;6.808;2023-11-21T14:41:24;19.35;;;11.30;;
43248;SDS011;29216;51.248;6.808;2023-11-21T14:43:54;17.27;;;10.32;;